createdAt,value
2019-04-30T00:01:58.476Z,100.00
2019-04-30T00:06:59.740Z,100.00
2019-04-30T00:12:03.182Z,100.00
2019-04-30T00:17:10.678Z,99.23
2019-04-30T00:22:11.868Z,96.41
2019-04-30T00:27:15.270Z,93.74
2019-04-30T00:32:18.677Z,95.89
2019-04-30T00:37:22.077Z,94.95
2019-04-30T00:42:28.830Z,94.07
2019-04-30T00:47:30.636Z,94.36
2019-04-30T00:52:36.922Z,94.19
2019-04-30T00:57:43.747Z,94.80
2019-04-30T01:02:49.866Z,95.43
2019-04-30T01:07:55.010Z,98.19
2019-04-30T01:13:01.833Z,98.05
2019-04-30T01:18:03.800Z,99.91
2019-04-30T01:23:11.090Z,100.00
2019-04-30T01:28:16.485Z,100.00
2019-04-30T01:33:19.174Z,96.88
2019-04-30T01:38:22.720Z,98.51
2019-04-30T01:43:31.436Z,95.77
2019-04-30T01:48:31.274Z,95.29
2019-04-30T01:53:35.645Z,94.42
2019-04-30T01:58:40.693Z,94.59
2019-04-30T02:03:44.097Z,94.54
2019-04-30T02:08:49.273Z,95.63
2019-04-30T02:13:52.810Z,97.68
2019-04-30T02:18:56.223Z,95.15
2019-04-30T02:23:59.626Z,96.30
2019-04-30T02:29:03.036Z,95.33
2019-04-30T02:34:10.183Z,97.97
2019-04-30T02:39:13.313Z,98.18
2019-04-30T02:44:19.584Z,96.19
2019-04-30T02:49:23.805Z,97.55
2019-04-30T02:54:29.927Z,97.05
2019-04-30T02:59:33.355Z,95.92
2019-04-30T03:04:39.365Z,95.02
2019-04-30T03:09:41.925Z,94.30
2019-04-30T03:14:45.465Z,94.54
2019-04-30T03:19:50.542Z,93.84
2019-04-30T03:24:54.004Z,93.22
2019-04-30T03:29:59.959Z,93.64
2019-04-30T03:35:03.386Z,93.81
2019-04-30T03:40:13.258Z,93.64
2019-04-30T03:45:15.896Z,93.84
2019-04-30T03:50:19.950Z,94.05
2019-04-30T03:55:24.954Z,92.49
2019-04-30T04:00:46.792Z,93.46
2019-04-30T04:05:51.893Z,93.47
2019-04-30T04:10:56.974Z,93.59
2019-04-30T04:16:00.521Z,93.03
2019-04-30T04:21:11.692Z,93.87
2019-04-30T04:26:09.538Z,93.76
2019-04-30T04:31:14.370Z,93.67
2019-04-30T04:36:19.842Z,94.87
2019-04-30T04:41:22.931Z,97.04
2019-04-30T04:46:26.387Z,96.23
2019-04-30T04:51:38.164Z,95.28
2019-04-30T04:56:34.959Z,100.00
2019-04-30T05:01:38.833Z,98.33
2019-04-30T05:06:42.382Z,100.00
2019-04-30T05:11:45.782Z,100.00
2019-04-30T05:16:49.210Z,97.23
2019-04-30T05:21:52.657Z,95.65
2019-04-30T05:26:56.089Z,97.92
2019-04-30T05:31:59.499Z,97.22
2019-04-30T05:37:02.915Z,97.31
2019-04-30T05:42:06.471Z,95.98
2019-04-30T05:47:09.886Z,93.61
2019-04-30T05:52:13.302Z,95.36
2019-04-30T05:57:16.717Z,92.92
2019-04-30T06:02:20.137Z,91.60
2019-04-30T06:07:23.553Z,91.29
2019-04-30T06:12:31.414Z,89.07
2019-04-30T06:17:36.475Z,88.60
2019-04-30T06:22:40.632Z,88.10
2019-04-30T06:27:44.421Z,87.01
2019-04-30T06:32:49.627Z,86.48
2019-04-30T06:37:53.163Z,85.77
2019-04-30T06:43:00.393Z,84.97
2019-04-30T06:48:04.342Z,85.12
2019-04-30T06:53:09.292Z,85.91
2019-04-30T06:58:15.587Z,89.29
2019-04-30T07:03:19.170Z,87.48
2019-04-30T07:08:42.483Z,89.76
2019-04-30T07:13:45.996Z,84.74
2019-04-30T07:18:49.464Z,84.13
2019-04-30T07:23:53.039Z,84.46
2019-04-30T07:28:56.458Z,84.06
2019-04-30T07:33:59.949Z,83.28
2019-04-30T07:39:05.832Z,83.30
2019-04-30T07:44:10.990Z,82.00
2019-04-30T07:49:14.486Z,83.22
2019-04-30T07:54:18.981Z,76.63
2019-04-30T07:59:22.858Z,78.33
2019-04-30T08:04:29.258Z,79.33
2019-04-30T08:09:39.072Z,75.69
2019-04-30T08:14:39.097Z,78.61
2019-04-30T08:19:42.620Z,78.66
2019-04-30T08:24:46.102Z,76.41
2019-04-30T08:29:50.142Z,74.41
2019-04-30T08:34:53.577Z,70.53
2019-04-30T08:39:57.076Z,69.68
2019-04-30T08:45:00.487Z,74.25
2019-04-30T08:50:05.365Z,74.85
2019-04-30T08:55:16.237Z,69.56
2019-04-30T09:00:15.125Z,68.30
2019-04-30T09:05:20.584Z,73.77
2019-04-30T09:10:24.030Z,67.79
2019-04-30T09:15:29.040Z,69.32
2019-04-30T09:20:32.634Z,66.21
2019-04-30T09:25:36.396Z,62.55
2019-04-30T09:30:39.799Z,63.38
2019-04-30T09:35:43.411Z,66.46
2019-04-30T09:40:46.940Z,64.84
2019-04-30T09:45:50.371Z,63.77
2019-04-30T09:50:54.088Z,62.10
2019-04-30T09:55:59.554Z,58.71
2019-04-30T10:01:02.907Z,60.79
2019-04-30T10:06:06.403Z,57.58
2019-04-30T10:11:20.302Z,54.55
2019-04-30T10:16:40.374Z,55.07
2019-04-30T10:21:44.107Z,53.98
2019-04-30T10:26:47.606Z,51.01
2019-04-30T10:31:51.503Z,54.40
2019-04-30T10:36:54.933Z,51.26
2019-04-30T10:41:58.404Z,51.82
2019-04-30T10:47:01.869Z,50.38
2019-04-30T10:52:05.406Z,48.96
2019-04-30T10:57:09.180Z,53.37
2019-04-30T11:02:12.704Z,52.24
2019-04-30T11:07:16.257Z,47.87
2019-04-30T11:12:19.843Z,47.27
2019-04-30T11:17:23.567Z,46.96
2019-04-30T11:22:27.317Z,47.70
2019-04-30T11:27:31.494Z,45.12
2019-04-30T11:32:35.517Z,45.12
2019-04-30T11:37:39.073Z,47.34
2019-04-30T11:42:42.571Z,43.94
2019-04-30T11:47:53.270Z,43.37
2019-04-30T11:52:51.139Z,45.46
2019-04-30T11:57:54.607Z,44.06
2019-04-30T12:02:59.351Z,43.74
2019-04-30T12:08:04.513Z,41.29
2019-04-30T12:13:09.666Z,44.34
2019-04-30T12:18:13.047Z,41.33
2019-04-30T12:23:16.477Z,40.06
2019-04-30T12:28:19.917Z,39.07
2019-04-30T12:33:23.318Z,40.64
2019-04-30T12:38:26.742Z,40.06
2019-04-30T12:43:30.155Z,39.83
2019-04-30T12:48:52.676Z,41.72
2019-04-30T12:54:00.546Z,37.28
2019-04-30T12:59:03.949Z,37.29
2019-04-30T13:04:09.645Z,40.52
2019-04-30T13:09:13.120Z,39.12
2019-04-30T13:14:19.548Z,37.02
2019-04-30T13:19:22.248Z,34.95
2019-04-30T13:24:25.748Z,38.12
2019-04-30T13:29:31.737Z,35.79
2019-04-30T13:34:51.596Z,36.38
2019-04-30T13:39:56.705Z,36.15
2019-04-30T13:45:00.095Z,34.20
2019-04-30T13:50:04.834Z,34.40
2019-04-30T13:55:10.751Z,35.73
2019-04-30T14:00:22.121Z,36.06
2019-04-30T14:05:25.753Z,31.73
2019-04-30T14:10:30.893Z,36.03
2019-04-30T14:15:34.381Z,33.02
2019-04-30T14:20:37.968Z,34.08
2019-04-30T14:25:41.362Z,37.33
2019-04-30T14:30:44.861Z,35.25
2019-04-30T14:35:49.762Z,34.05
2019-04-30T14:40:53.789Z,35.31
2019-04-30T14:46:15.555Z,35.99
2019-04-30T14:51:19.193Z,34.63
2019-04-30T14:56:26.967Z,35.14
2019-04-30T15:01:32.036Z,34.56
2019-04-30T15:06:35.457Z,34.54
2019-04-30T15:11:38.967Z,32.86
2019-04-30T15:16:42.371Z,33.73
2019-04-30T15:21:45.843Z,35.93
2019-04-30T15:26:57.687Z,36.30
2019-04-30T15:31:55.091Z,35.04
2019-04-30T15:36:59.137Z,36.65
2019-04-30T15:42:02.843Z,34.87
2019-04-30T15:47:06.634Z,35.87
2019-04-30T15:52:11.074Z,37.61
2019-04-30T15:57:14.528Z,37.65
2019-04-30T16:02:25.418Z,37.62
2019-04-30T16:07:29.541Z,38.56
2019-04-30T16:12:52.072Z,36.86
2019-04-30T16:17:59.822Z,38.97
2019-04-30T16:23:03.324Z,40.25
2019-04-30T16:28:08.546Z,40.14
2019-04-30T16:33:12.657Z,39.73
2019-04-30T16:38:16.050Z,42.36
2019-04-30T16:43:20.333Z,42.36
2019-04-30T16:48:23.896Z,41.48
2019-04-30T16:53:27.300Z,41.75
2019-04-30T16:58:32.342Z,43.02
2019-04-30T17:03:38.809Z,43.02
2019-04-30T17:08:49.329Z,42.40
2019-04-30T17:13:53.797Z,42.57
2019-04-30T17:18:59.081Z,44.56
2019-04-30T17:24:02.539Z,43.29
2019-04-30T17:29:06.006Z,44.87
2019-04-30T17:34:09.414Z,44.73
2019-04-30T17:39:14.543Z,45.12
2019-04-30T17:44:18.696Z,46.10
2019-04-30T17:49:22.154Z,47.37
2019-04-30T17:54:25.653Z,47.28
2019-04-30T17:59:29.072Z,47.92
2019-04-30T18:04:32.757Z,47.82
2019-04-30T18:09:36.188Z,49.67
2019-04-30T18:14:39.696Z,49.11
2019-04-30T18:19:44.751Z,50.83
2019-04-30T18:24:49.875Z,50.94
2019-04-30T18:29:53.306Z,52.80
2019-04-30T18:34:56.735Z,53.15
2019-04-30T18:40:00.245Z,52.70
2019-04-30T18:45:03.809Z,52.85
2019-04-30T18:50:09.323Z,54.27
2019-04-30T18:55:13.106Z,55.24
2019-04-30T19:00:19.759Z,54.88
2019-04-30T19:05:25.143Z,56.62
2019-04-30T19:10:46.327Z,56.66
2019-04-30T19:16:18.173Z,56.51
2019-04-30T19:21:00.547Z,58.08
2019-04-30T19:26:04.121Z,59.99
2019-04-30T19:31:09.176Z,61.42
2019-04-30T19:36:13.534Z,62.52
2019-04-30T19:41:18.577Z,64.59
2019-04-30T19:46:22.093Z,64.61
2019-04-30T19:51:25.530Z,65.50
2019-04-30T19:56:30.309Z,65.45
2019-04-30T20:01:34.103Z,66.08
2019-04-30T20:06:38.636Z,65.74
2019-04-30T20:11:42.638Z,66.49
2019-04-30T20:16:46.112Z,67.12
2019-04-30T20:21:53.621Z,68.79
2019-04-30T20:27:05.811Z,68.69
2019-04-30T20:31:59.901Z,69.20
2019-04-30T20:37:03.359Z,69.67
2019-04-30T20:42:06.772Z,69.34
2019-04-30T20:47:10.213Z,68.83
2019-04-30T20:52:13.621Z,68.62
2019-04-30T20:57:17.042Z,68.54
2019-04-30T21:02:20.610Z,68.53
2019-04-30T21:07:23.968Z,68.53
2019-04-30T21:12:28.825Z,68.90
2019-04-30T21:17:32.382Z,69.90
2019-04-30T21:22:35.799Z,69.94
2019-04-30T21:27:40.120Z,70.24
2019-04-30T21:32:59.240Z,69.91
2019-04-30T21:38:02.787Z,70.31
2019-04-30T21:43:06.212Z,71.15
2019-04-30T21:48:09.638Z,71.79
2019-04-30T21:53:13.054Z,71.87
2019-04-30T21:58:16.476Z,72.97
2019-04-30T22:03:19.886Z,73.99
2019-04-30T22:08:23.345Z,74.42
2019-04-30T22:13:26.746Z,74.40
2019-04-30T22:18:30.175Z,74.44
2019-04-30T22:23:33.615Z,75.00
2019-04-30T22:28:37.052Z,76.22
2019-04-30T22:33:40.530Z,76.67
2019-04-30T22:38:45.591Z,76.50
2019-04-30T22:43:50.169Z,77.71
2019-04-30T22:48:53.610Z,79.59
2019-04-30T22:53:57.028Z,79.73
2019-04-30T22:59:00.526Z,79.91
2019-04-30T23:04:05.641Z,81.41
2019-04-30T23:09:11.476Z,82.93
2019-04-30T23:14:14.955Z,80.94
2019-04-30T23:19:18.402Z,80.07
2019-04-30T23:24:21.840Z,79.56
2019-04-30T23:29:25.347Z,80.93
2019-04-30T23:34:28.781Z,83.64
2019-04-30T23:39:32.177Z,81.79
2019-04-30T23:44:35.652Z,81.96
2019-04-30T23:49:39.079Z,82.79
2019-04-30T23:54:42.561Z,82.33
2019-04-30T23:59:45.981Z,82.87
